sensor_id;sensor_type;location;lat;lon;timestamp;temperature;humidity
9790;DHT22;4934;50.852;8.098;2023-07-31T00:02:15;15.00;99.90
9790;DHT22;4934;50.852;8.098;2023-07-31T00:04:40;15.10;99.90
9790;DHT22;4934;50.852;8.098;2023-07-31T00:07:06;15.10;99.90
9790;DHT22;4934;50.852;8.098;2023-07-31T00:09:32;15.10;99.90
9790;DHT22;4934;50.852;8.098;2023-07-31T00:11:58;15.10;99.90
9790;DHT22;4934;50.852;8.098;2023-07-31T00:14:24;15.00;99.90
9790;DHT22;4934;50.852;8.098;2023-07-31T00:16:49;15.00;99.90
9790;DHT22;4934;50.852;8.098;2023-07-31T00:19:15;15.10;99.90
9790;DHT22;4934;50.852;8.098;2023-07-31T00:21:40;15.10;99.90
9790;DHT22;4934;50.852;8.098;2023-07-31T00:24:06;15.10;99.90
9790;DHT22;4934;50.852;8.098;2023-07-31T00:26:31;15.10;99.90
9790;DHT22;4934;50.852;8.098;2023-07-31T00:28:57;15.00;99.90
9790;DHT22;4934;50.852;8.098;2023-07-31T00:31:23;15.00;99.90
9790;DHT22;4934;50.852;8.098;2023-07-31T00:33:48;15.00;99.90
9790;DHT22;4934;50.852;8.098;2023-07-31T00:36:14;15.00;99.90
9790;DHT22;4934;50.852;8.098;2023-07-31T00:38:39;15.00;99.90
9790;DHT22;4934;50.852;8.098;2023-07-31T00:41:05;15.00;99.90
9790;DHT22;4934;50.852;8.098;2023-07-31T00:43:30;15.00;99.90
9790;DHT22;4934;50.852;8.098;2023-07-31T00:45:56;15.00;99.90
9790;DHT22;4934;50.852;8.098;2023-07-31T00:48:22;15.00;99.90
9790;DHT22;4934;50.852;8.098;2023-07-31T00:50:48;15.00;99.90
9790;DHT22;4934;50.852;8.098;2023-07-31T00:53:13;15.10;99.90
9790;DHT22;4934;50.852;8.098;2023-07-31T00:55:39;15.00;99.90
9790;DHT22;4934;50.852;8.098;2023-07-31T00:58:05;15.10;99.90
9790;DHT22;4934;50.852;8.098;2023-07-31T01:00:31;15.00;99.90
9790;DHT22;4934;50.852;8.098;2023-07-31T01:02:56;15.00;99.90
9790;DHT22;4934;50.852;8.098;2023-07-31T01:05:33;15.10;99.90
9790;DHT22;4934;50.852;8.098;2023-07-31T01:08:12;15.10;99.90
9790;DHT22;4934;50.852;8.098;2023-07-31T01:10:54;15.10;99.90
9790;DHT22;4934;50.852;8.098;2023-07-31T01:13:21;15.10;99.90
9790;DHT22;4934;50.852;8.098;2023-07-31T01:15:47;15.20;99.90
9790;DHT22;4934;50.852;8.098;2023-07-31T01:18:12;15.20;99.90
9790;DHT22;4934;50.852;8.098;2023-07-31T01:20:41;15.20;99.90
9790;DHT22;4934;50.852;8.098;2023-07-31T01:23:31;15.20;99.90
9790;DHT22;4934;50.852;8.098;2023-07-31T01:26:11;15.20;99.90
9790;DHT22;4934;50.852;8.098;2023-07-31T01:31:23;15.30;99.90
9790;DHT22;4934;50.852;8.098;2023-07-31T01:33:51;15.30;99.90
9790;DHT22;4934;50.852;8.098;2023-07-31T01:36:18;15.30;99.90
9790;DHT22;4934;50.852;8.098;2023-07-31T01:38:44;15.30;99.90
9790;DHT22;4934;50.852;8.098;2023-07-31T01:41:09;15.30;99.90
9790;DHT22;4934;50.852;8.098;2023-07-31T01:43:35;15.30;99.90
9790;DHT22;4934;50.852;8.098;2023-07-31T01:46:00;15.30;99.90
9790;DHT22;4934;50.852;8.098;2023-07-31T01:48:26;15.30;99.90
9790;DHT22;4934;50.852;8.098;2023-07-31T01:50:51;15.30;99.90
9790;DHT22;4934;50.852;8.098;2023-07-31T01:53:17;15.30;99.90
9790;DHT22;4934;50.852;8.098;2023-07-31T01:55:43;15.20;99.90
9790;DHT22;4934;50.852;8.098;2023-07-31T01:58:09;15.30;99.90
9790;DHT22;4934;50.852;8.098;2023-07-31T02:00:34;15.30;99.90
9790;DHT22;4934;50.852;8.098;2023-07-31T02:03:00;15.30;99.90
9790;DHT22;4934;50.852;8.098;2023-07-31T02:05:25;15.40;99.90
9790;DHT22;4934;50.852;8.098;2023-07-31T02:07:51;15.40;99.90
9790;DHT22;4934;50.852;8.098;2023-07-31T02:10:17;15.40;99.90
9790;DHT22;4934;50.852;8.098;2023-07-31T02:12:42;15.40;99.90
9790;DHT22;4934;50.852;8.098;2023-07-31T02:15:08;15.40;99.90
9790;DHT22;4934;50.852;8.098;2023-07-31T02:17:34;15.40;99.90
9790;DHT22;4934;50.852;8.098;2023-07-31T02:19:59;15.40;99.90
9790;DHT22;4934;50.852;8.098;2023-07-31T02:22:25;15.40;99.90
9790;DHT22;4934;50.852;8.098;2023-07-31T02:24:51;15.40;99.90
9790;DHT22;4934;50.852;8.098;2023-07-31T02:27:16;15.40;99.90
9790;DHT22;4934;50.852;8.098;2023-07-31T02:29:42;15.40;99.90
9790;DHT22;4934;50.852;8.098;2023-07-31T02:32:07;15.40;99.90
9790;DHT22;4934;50.852;8.098;2023-07-31T02:34:33;15.40;99.90
9790;DHT22;4934;50.852;8.098;2023-07-31T02:36:58;15.40;99.90
9790;DHT22;4934;50.852;8.098;2023-07-31T02:39:24;15.40;99.90
9790;DHT22;4934;50.852;8.098;2023-07-31T02:41:49;15.40;99.90
9790;DHT22;4934;50.852;8.098;2023-07-31T02:44:15;15.40;99.90
9790;DHT22;4934;50.852;8.098;2023-07-31T02:46:40;15.40;99.90
9790;DHT22;4934;50.852;8.098;2023-07-31T02:49:06;15.40;99.90
9790;DHT22;4934;50.852;8.098;2023-07-31T02:51:32;15.40;99.90
9790;DHT22;4934;50.852;8.098;2023-07-31T02:53:57;15.40;99.90
9790;DHT22;4934;50.852;8.098;2023-07-31T02:56:23;15.40;99.90
9790;DHT22;4934;50.852;8.098;2023-07-31T02:58:48;15.40;99.90
9790;DHT22;4934;50.852;8.098;2023-07-31T03:01:14;15.40;99.90
9790;DHT22;4934;50.852;8.098;2023-07-31T03:03:41;15.40;99.90
9790;DHT22;4934;50.852;8.098;2023-07-31T03:06:06;15.40;99.90
9790;DHT22;4934;50.852;8.098;2023-07-31T03:08:32;15.30;99.90
9790;DHT22;4934;50.852;8.098;2023-07-31T03:10:57;15.40;99.90
9790;DHT22;4934;50.852;8.098;2023-07-31T03:13:23;15.40;99.90
9790;DHT22;4934;50.852;8.098;2023-07-31T03:15:48;15.40;99.90
9790;DHT22;4934;50.852;8.098;2023-07-31T03:18:14;15.40;99.90
9790;DHT22;4934;50.852;8.098;2023-07-31T03:20:43;15.30;99.90
9790;DHT22;4934;50.852;8.098;2023-07-31T03:23:09;15.30;99.90
9790;DHT22;4934;50.852;8.098;2023-07-31T03:25:35;15.40;99.90
9790;DHT22;4934;50.852;8.098;2023-07-31T03:28:00;15.30;99.90
9790;DHT22;4934;50.852;8.098;2023-07-31T03:30:26;15.40;99.90
9790;DHT22;4934;50.852;8.098;2023-07-31T03:32:52;15.30;99.90
9790;DHT22;4934;50.852;8.098;2023-07-31T03:35:18;15.30;99.90
9790;DHT22;4934;50.852;8.098;2023-07-31T03:37:43;15.30;99.90
9790;DHT22;4934;50.852;8.098;2023-07-31T03:40:09;15.30;99.90
9790;DHT22;4934;50.852;8.098;2023-07-31T03:42:35;15.30;99.90
9790;DHT22;4934;50.852;8.098;2023-07-31T03:45:00;15.30;99.90
9790;DHT22;4934;50.852;8.098;2023-07-31T03:47:26;15.30;99.90
9790;DHT22;4934;50.852;8.098;2023-07-31T03:49:52;15.30;99.90
9790;DHT22;4934;50.852;8.098;2023-07-31T03:52:17;15.30;99.90
9790;DHT22;4934;50.852;8.098;2023-07-31T03:54:43;15.30;99.90
9790;DHT22;4934;50.852;8.098;2023-07-31T03:57:10;15.30;99.90
9790;DHT22;4934;50.852;8.098;2023-07-31T03:59:36;15.30;99.90
9790;DHT22;4934;50.852;8.098;2023-07-31T04:02:04;15.30;99.90
9790;DHT22;4934;50.852;8.098;2023-07-31T04:04:30;15.30;99.90
9790;DHT22;4934;50.852;8.098;2023-07-31T04:06:55;15.30;99.90
9790;DHT22;4934;50.852;8.098;2023-07-31T04:09:21;15.30;99.90
9790;DHT22;4934;50.852;8.098;2023-07-31T04:11:46;15.30;99.90
9790;DHT22;4934;50.852;8.098;2023-07-31T04:14:12;15.30;99.90
9790;DHT22;4934;50.852;8.098;2023-07-31T04:16:37;15.30;99.90
9790;DHT22;4934;50.852;8.098;2023-07-31T04:19:03;15.30;99.90
9790;DHT22;4934;50.852;8.098;2023-07-31T04:21:29;15.30;99.90
9790;DHT22;4934;50.852;8.098;2023-07-31T04:23:55;15.30;99.90
9790;DHT22;4934;50.852;8.098;2023-07-31T04:26:21;15.30;99.90
9790;DHT22;4934;50.852;8.098;2023-07-31T04:28:47;15.40;99.90
9790;DHT22;4934;50.852;8.098;2023-07-31T04:31:12;15.40;99.90
9790;DHT22;4934;50.852;8.098;2023-07-31T04:33:38;15.40;99.90
9790;DHT22;4934;50.852;8.098;2023-07-31T04:36:05;15.40;99.90
9790;DHT22;4934;50.852;8.098;2023-07-31T04:38:30;15.40;99.90
9790;DHT22;4934;50.852;8.098;2023-07-31T04:40:56;15.40;99.90
9790;DHT22;4934;50.852;8.098;2023-07-31T04:43:22;15.40;99.90
9790;DHT22;4934;50.852;8.098;2023-07-31T04:45:47;15.40;99.90
9790;DHT22;4934;50.852;8.098;2023-07-31T04:48:13;15.50;99.90
9790;DHT22;4934;50.852;8.098;2023-07-31T04:50:39;15.50;99.90
9790;DHT22;4934;50.852;8.098;2023-07-31T04:53:05;15.50;99.90
9790;DHT22;4934;50.852;8.098;2023-07-31T04:55:30;15.50;99.90
9790;DHT22;4934;50.852;8.098;2023-07-31T04:57:57;15.50;99.90
9790;DHT22;4934;50.852;8.098;2023-07-31T05:00:22;15.60;99.90
9790;DHT22;4934;50.852;8.098;2023-07-31T05:02:48;15.60;99.90
9790;DHT22;4934;50.852;8.098;2023-07-31T05:05:14;15.60;99.90
9790;DHT22;4934;50.852;8.098;2023-07-31T05:07:39;15.60;99.90
9790;DHT22;4934;50.852;8.098;2023-07-31T05:10:05;15.60;99.90
9790;DHT22;4934;50.852;8.098;2023-07-31T05:12:31;15.70;99.90
9790;DHT22;4934;50.852;8.098;2023-07-31T05:14:56;15.70;99.90
9790;DHT22;4934;50.852;8.098;2023-07-31T05:17:22;15.70;99.90
9790;DHT22;4934;50.852;8.098;2023-07-31T05:19:48;15.70;99.90
9790;DHT22;4934;50.852;8.098;2023-07-31T05:22:13;15.80;99.90
9790;DHT22;4934;50.852;8.098;2023-07-31T05:24:39;15.80;99.90
9790;DHT22;4934;50.852;8.098;2023-07-31T05:27:05;15.80;99.90
9790;DHT22;4934;50.852;8.098;2023-07-31T05:29:31;15.90;99.90
9790;DHT22;4934;50.852;8.098;2023-07-31T05:31:56;16.00;99.90
9790;DHT22;4934;50.852;8.098;2023-07-31T05:34:22;16.00;99.90
9790;DHT22;4934;50.852;8.098;2023-07-31T05:36:47;16.00;99.90
9790;DHT22;4934;50.852;8.098;2023-07-31T05:39:13;16.10;99.90
9790;DHT22;4934;50.852;8.098;2023-07-31T05:41:39;16.10;99.90
9790;DHT22;4934;50.852;8.098;2023-07-31T05:44:04;16.10;99.90
9790;DHT22;4934;50.852;8.098;2023-07-31T05:46:30;16.10;99.90
9790;DHT22;4934;50.852;8.098;2023-07-31T05:48:56;16.10;99.90
9790;DHT22;4934;50.852;8.098;2023-07-31T05:51:22;16.10;99.90
9790;DHT22;4934;50.852;8.098;2023-07-31T05:53:47;16.10;99.90
9790;DHT22;4934;50.852;8.098;2023-07-31T05:56:13;16.20;99.90
9790;DHT22;4934;50.852;8.098;2023-07-31T05:58:38;16.30;99.90
9790;DHT22;4934;50.852;8.098;2023-07-31T06:01:04;16.40;99.90
9790;DHT22;4934;50.852;8.098;2023-07-31T06:03:29;16.50;99.90
9790;DHT22;4934;50.852;8.098;2023-07-31T06:05:55;16.60;99.90
9790;DHT22;4934;50.852;8.098;2023-07-31T06:08:21;16.80;99.90
9790;DHT22;4934;50.852;8.098;2023-07-31T06:10:47;16.80;99.90
9790;DHT22;4934;50.852;8.098;2023-07-31T06:13:12;17.00;99.90
9790;DHT22;4934;50.852;8.098;2023-07-31T06:15:38;17.20;99.90
9790;DHT22;4934;50.852;8.098;2023-07-31T06:18:03;17.20;99.90
9790;DHT22;4934;50.852;8.098;2023-07-31T06:20:32;17.20;99.90
9790;DHT22;4934;50.852;8.098;2023-07-31T06:22:58;17.20;99.90
9790;DHT22;4934;50.852;8.098;2023-07-31T06:25:23;17.20;99.90
9790;DHT22;4934;50.852;8.098;2023-07-31T06:27:49;17.20;99.90
9790;DHT22;4934;50.852;8.098;2023-07-31T06:30:15;17.30;99.90
9790;DHT22;4934;50.852;8.098;2023-07-31T06:32:40;17.40;99.90
9790;DHT22;4934;50.852;8.098;2023-07-31T06:35:06;17.40;99.90
9790;DHT22;4934;50.852;8.098;2023-07-31T06:37:32;17.50;99.90
9790;DHT22;4934;50.852;8.098;2023-07-31T06:39:57;17.70;99.90
9790;DHT22;4934;50.852;8.098;2023-07-31T06:42:23;18.00;99.90
9790;DHT22;4934;50.852;8.098;2023-07-31T06:44:49;18.20;99.90
9790;DHT22;4934;50.852;8.098;2023-07-31T06:47:15;18.30;99.90
9790;DHT22;4934;50.852;8.098;2023-07-31T06:49:40;18.40;99.90
9790;DHT22;4934;50.852;8.098;2023-07-31T06:52:06;18.30;99.90
9790;DHT22;4934;50.852;8.098;2023-07-31T06:54:32;18.30;99.90
9790;DHT22;4934;50.852;8.098;2023-07-31T06:56:57;18.20;99.90
9790;DHT22;4934;50.852;8.098;2023-07-31T06:59:23;18.10;99.90
9790;DHT22;4934;50.852;8.098;2023-07-31T07:01:48;18.00;99.90
9790;DHT22;4934;50.852;8.098;2023-07-31T07:04:14;17.90;99.90
9790;DHT22;4934;50.852;8.098;2023-07-31T07:06:40;17.90;99.90
9790;DHT22;4934;50.852;8.098;2023-07-31T07:09:05;17.80;99.90
9790;DHT22;4934;50.852;8.098;2023-07-31T07:11:32;17.80;99.90
9790;DHT22;4934;50.852;8.098;2023-07-31T07:13:57;17.70;99.90
9790;DHT22;4934;50.852;8.098;2023-07-31T07:16:23;17.60;99.90
9790;DHT22;4934;50.852;8.098;2023-07-31T07:18:49;17.60;99.90
9790;DHT22;4934;50.852;8.098;2023-07-31T07:21:14;17.50;99.90
9790;DHT22;4934;50.852;8.098;2023-07-31T07:23:43;17.50;99.90
9790;DHT22;4934;50.852;8.098;2023-07-31T07:26:08;17.40;99.90
9790;DHT22;4934;50.852;8.098;2023-07-31T07:28:34;17.50;99.90
9790;DHT22;4934;50.852;8.098;2023-07-31T07:31:00;17.40;99.90
9790;DHT22;4934;50.852;8.098;2023-07-31T07:33:25;17.50;99.90
9790;DHT22;4934;50.852;8.098;2023-07-31T07:35:51;17.50;99.90
9790;DHT22;4934;50.852;8.098;2023-07-31T07:38:17;17.60;99.90
9790;DHT22;4934;50.852;8.098;2023-07-31T07:40:44;17.70;99.90
9790;DHT22;4934;50.852;8.098;2023-07-31T07:43:12;17.90;99.90
9790;DHT22;4934;50.852;8.098;2023-07-31T07:45:37;18.10;99.90
9790;DHT22;4934;50.852;8.098;2023-07-31T07:48:03;18.30;99.90
9790;DHT22;4934;50.852;8.098;2023-07-31T07:50:29;18.50;99.90
9790;DHT22;4934;50.852;8.098;2023-07-31T07:52:54;18.60;99.90
9790;DHT22;4934;50.852;8.098;2023-07-31T07:55:20;18.80;99.90
9790;DHT22;4934;50.852;8.098;2023-07-31T07:57:45;18.90;99.90
9790;DHT22;4934;50.852;8.098;2023-07-31T08:00:13;19.00;99.90
9790;DHT22;4934;50.852;8.098;2023-07-31T08:02:38;19.10;99.90
9790;DHT22;4934;50.852;8.098;2023-07-31T08:05:04;19.20;99.90
9790;DHT22;4934;50.852;8.098;2023-07-31T08:07:30;19.40;99.90
9790;DHT22;4934;50.852;8.098;2023-07-31T08:09:55;19.70;99.90
9790;DHT22;4934;50.852;8.098;2023-07-31T08:12:21;19.90;99.90
9790;DHT22;4934;50.852;8.098;2023-07-31T08:14:46;20.20;99.90
9790;DHT22;4934;50.852;8.098;2023-07-31T08:17:12;20.40;99.90
9790;DHT22;4934;50.852;8.098;2023-07-31T08:19:38;20.60;99.90
9790;DHT22;4934;50.852;8.098;2023-07-31T08:22:03;20.80;99.90
9790;DHT22;4934;50.852;8.098;2023-07-31T08:24:29;20.80;99.90
9790;DHT22;4934;50.852;8.098;2023-07-31T08:26:54;20.60;99.90
9790;DHT22;4934;50.852;8.098;2023-07-31T08:29:20;20.60;99.90
9790;DHT22;4934;50.852;8.098;2023-07-31T08:31:45;20.40;99.90
9790;DHT22;4934;50.852;8.098;2023-07-31T08:34:11;20.20;99.90
9790;DHT22;4934;50.852;8.098;2023-07-31T08:36:37;19.90;99.90
9790;DHT22;4934;50.852;8.098;2023-07-31T08:39:02;19.80;99.90
9790;DHT22;4934;50.852;8.098;2023-07-31T08:41:29;19.70;99.90
9790;DHT22;4934;50.852;8.098;2023-07-31T08:43:55;19.60;99.90
9790;DHT22;4934;50.852;8.098;2023-07-31T08:46:22;19.50;99.90
9790;DHT22;4934;50.852;8.098;2023-07-31T08:48:47;19.30;99.90
9790;DHT22;4934;50.852;8.098;2023-07-31T08:51:16;19.30;99.90
9790;DHT22;4934;50.852;8.098;2023-07-31T08:53:41;19.20;99.90
9790;DHT22;4934;50.852;8.098;2023-07-31T08:56:07;19.30;99.90
9790;DHT22;4934;50.852;8.098;2023-07-31T08:58:35;19.20;99.90
9790;DHT22;4934;50.852;8.098;2023-07-31T09:01:04;19.20;99.90
9790;DHT22;4934;50.852;8.098;2023-07-31T09:03:33;19.10;99.90
9790;DHT22;4934;50.852;8.098;2023-07-31T09:05:59;19.00;99.90
9790;DHT22;4934;50.852;8.098;2023-07-31T09:08:27;18.90;99.90
9790;DHT22;4934;50.852;8.098;2023-07-31T09:10:59;18.80;99.90
9790;DHT22;4934;50.852;8.098;2023-07-31T09:13:25;18.70;99.90
9790;DHT22;4934;50.852;8.098;2023-07-31T09:15:52;18.70;99.90
9790;DHT22;4934;50.852;8.098;2023-07-31T09:18:18;18.70;99.90
9790;DHT22;4934;50.852;8.098;2023-07-31T09:21:00;18.70;99.90
9790;DHT22;4934;50.852;8.098;2023-07-31T09:23:40;18.80;99.90
9790;DHT22;4934;50.852;8.098;2023-07-31T09:26:06;18.90;99.90
9790;DHT22;4934;50.852;8.098;2023-07-31T09:28:31;19.00;99.90
9790;DHT22;4934;50.852;8.098;2023-07-31T09:30:57;18.80;99.90
9790;DHT22;4934;50.852;8.098;2023-07-31T09:33:22;19.00;99.90
9790;DHT22;4934;50.852;8.098;2023-07-31T09:35:48;19.00;99.90
9790;DHT22;4934;50.852;8.098;2023-07-31T09:38:14;18.90;99.90
9790;DHT22;4934;50.852;8.098;2023-07-31T09:40:47;18.90;99.90
9790;DHT22;4934;50.852;8.098;2023-07-31T09:43:17;19.00;99.90
9790;DHT22;4934;50.852;8.098;2023-07-31T09:45:44;19.00;99.90
9790;DHT22;4934;50.852;8.098;2023-07-31T09:48:12;19.00;99.90
9790;DHT22;4934;50.852;8.098;2023-07-31T09:50:42;19.00;99.90
9790;DHT22;4934;50.852;8.098;2023-07-31T09:53:09;19.10;99.90
9790;DHT22;4934;50.852;8.098;2023-07-31T09:55:36;19.20;99.90
9790;DHT22;4934;50.852;8.098;2023-07-31T09:58:09;19.10;99.90
9790;DHT22;4934;50.852;8.098;2023-07-31T10:00:36;19.00;99.90
9790;DHT22;4934;50.852;8.098;2023-07-31T10:03:07;19.10;99.90
9790;DHT22;4934;50.852;8.098;2023-07-31T10:05:42;19.10;99.90
9790;DHT22;4934;50.852;8.098;2023-07-31T10:08:10;19.10;99.90
9790;DHT22;4934;50.852;8.098;2023-07-31T10:10:37;19.20;99.90
9790;DHT22;4934;50.852;8.098;2023-07-31T10:13:06;19.20;99.90
9790;DHT22;4934;50.852;8.098;2023-07-31T10:15:32;19.50;99.90
9790;DHT22;4934;50.852;8.098;2023-07-31T10:17:59;19.70;99.90
9790;DHT22;4934;50.852;8.098;2023-07-31T10:20:26;20.10;99.90
9790;DHT22;4934;50.852;8.098;2023-07-31T10:22:54;20.40;99.90
9790;DHT22;4934;50.852;8.098;2023-07-31T10:25:22;20.70;99.90
9790;DHT22;4934;50.852;8.098;2023-07-31T10:27:47;20.90;99.90
9790;DHT22;4934;50.852;8.098;2023-07-31T10:30:16;20.90;99.90
9790;DHT22;4934;50.852;8.098;2023-07-31T10:32:43;20.90;99.90
9790;DHT22;4934;50.852;8.098;2023-07-31T10:35:09;20.70;99.90
9790;DHT22;4934;50.852;8.098;2023-07-31T10:37:41;20.80;99.90
9790;DHT22;4934;50.852;8.098;2023-07-31T10:40:16;20.60;99.90
9790;DHT22;4934;50.852;8.098;2023-07-31T10:42:50;20.70;99.90
9790;DHT22;4934;50.852;8.098;2023-07-31T10:45:30;21.00;99.90
9790;DHT22;4934;50.852;8.098;2023-07-31T10:48:06;20.70;99.90
9790;DHT22;4934;50.852;8.098;2023-07-31T10:50:37;20.80;99.90
9790;DHT22;4934;50.852;8.098;2023-07-31T10:53:03;20.90;99.90
9790;DHT22;4934;50.852;8.098;2023-07-31T10:55:39;21.10;99.90
9790;DHT22;4934;50.852;8.098;2023-07-31T10:58:13;21.10;99.90
9790;DHT22;4934;50.852;8.098;2023-07-31T11:00:43;20.90;99.90
9790;DHT22;4934;50.852;8.098;2023-07-31T11:03:19;20.90;99.90
9790;DHT22;4934;50.852;8.098;2023-07-31T11:08:33;20.60;99.90
9790;DHT22;4934;50.852;8.098;2023-07-31T11:16:06;20.30;99.90
9790;DHT22;4934;50.852;8.098;2023-07-31T11:18:32;20.20;99.90
9790;DHT22;4934;50.852;8.098;2023-07-31T11:20:58;20.00;99.90
9790;DHT22;4934;50.852;8.098;2023-07-31T11:23:24;20.00;99.90
9790;DHT22;4934;50.852;8.098;2023-07-31T11:25:50;19.90;99.90
9790;DHT22;4934;50.852;8.098;2023-07-31T11:28:17;19.90;99.90
9790;DHT22;4934;50.852;8.098;2023-07-31T11:30:45;19.80;99.90
9790;DHT22;4934;50.852;8.098;2023-07-31T11:33:12;19.80;99.90
9790;DHT22;4934;50.852;8.098;2023-07-31T11:35:47;19.80;99.90
9790;DHT22;4934;50.852;8.098;2023-07-31T11:40:52;19.70;99.90
9790;DHT22;4934;50.852;8.098;2023-07-31T11:43:19;19.70;99.90
9790;DHT22;4934;50.852;8.098;2023-07-31T11:46:02;19.90;99.90
9790;DHT22;4934;50.852;8.098;2023-07-31T11:48:36;20.00;99.90
9790;DHT22;4934;50.852;8.098;2023-07-31T11:51:09;20.10;99.90
9790;DHT22;4934;50.852;8.098;2023-07-31T11:53:45;20.20;99.90
9790;DHT22;4934;50.852;8.098;2023-07-31T11:56:15;20.10;99.90
9790;DHT22;4934;50.852;8.098;2023-07-31T11:58:43;20.00;99.90
9790;DHT22;4934;50.852;8.098;2023-07-31T12:01:11;19.90;99.90
9790;DHT22;4934;50.852;8.098;2023-07-31T12:03:37;20.00;99.90
9790;DHT22;4934;50.852;8.098;2023-07-31T12:06:03;20.10;99.90
9790;DHT22;4934;50.852;8.098;2023-07-31T12:08:29;20.10;99.90
9790;DHT22;4934;50.852;8.098;2023-07-31T12:11:05;20.10;99.90
9790;DHT22;4934;50.852;8.098;2023-07-31T12:13:32;20.10;99.90
9790;DHT22;4934;50.852;8.098;2023-07-31T12:15:59;20.20;99.90
9790;DHT22;4934;50.852;8.098;2023-07-31T12:18:26;20.30;99.90
9790;DHT22;4934;50.852;8.098;2023-07-31T12:20:59;20.30;99.90
9790;DHT22;4934;50.852;8.098;2023-07-31T12:23:31;20.30;99.90
9790;DHT22;4934;50.852;8.098;2023-07-31T12:26:08;20.20;99.90
9790;DHT22;4934;50.852;8.098;2023-07-31T12:28:48;20.10;99.90
9790;DHT22;4934;50.852;8.098;2023-07-31T12:31:18;20.30;99.90
9790;DHT22;4934;50.852;8.098;2023-07-31T12:33:45;20.30;99.90
9790;DHT22;4934;50.852;8.098;2023-07-31T12:36:16;20.40;99.90
9790;DHT22;4934;50.852;8.098;2023-07-31T12:38:42;20.60;99.90
9790;DHT22;4934;50.852;8.098;2023-07-31T12:41:08;20.60;99.90
9790;DHT22;4934;50.852;8.098;2023-07-31T12:43:35;20.40;99.90
9790;DHT22;4934;50.852;8.098;2023-07-31T12:46:01;20.40;99.90
9790;DHT22;4934;50.852;8.098;2023-07-31T12:48:26;20.20;99.90
9790;DHT22;4934;50.852;8.098;2023-07-31T12:50:52;20.20;99.90
9790;DHT22;4934;50.852;8.098;2023-07-31T12:53:17;20.60;99.90
9790;DHT22;4934;50.852;8.098;2023-07-31T12:55:43;20.90;99.90
9790;DHT22;4934;50.852;8.098;2023-07-31T12:58:09;20.90;99.90
9790;DHT22;4934;50.852;8.098;2023-07-31T13:00:34;21.00;99.90
9790;DHT22;4934;50.852;8.098;2023-07-31T13:03:01;20.90;99.90
9790;DHT22;4934;50.852;8.098;2023-07-31T13:05:27;20.90;99.90
9790;DHT22;4934;50.852;8.098;2023-07-31T13:07:53;20.60;99.90
9790;DHT22;4934;50.852;8.098;2023-07-31T13:10:19;20.60;99.90
9790;DHT22;4934;50.852;8.098;2023-07-31T13:12:45;20.50;99.90
9790;DHT22;4934;50.852;8.098;2023-07-31T13:15:11;20.80;99.90
9790;DHT22;4934;50.852;8.098;2023-07-31T13:17:37;20.90;99.90
9790;DHT22;4934;50.852;8.098;2023-07-31T13:20:03;21.10;99.90
9790;DHT22;4934;50.852;8.098;2023-07-31T13:22:29;21.20;99.90
9790;DHT22;4934;50.852;8.098;2023-07-31T13:24:55;21.30;99.90
9790;DHT22;4934;50.852;8.098;2023-07-31T13:27:20;21.30;99.90
9790;DHT22;4934;50.852;8.098;2023-07-31T13:29:50;21.40;99.90
9790;DHT22;4934;50.852;8.098;2023-07-31T13:32:17;21.30;99.90
9790;DHT22;4934;50.852;8.098;2023-07-31T13:34:43;21.20;99.90
9790;DHT22;4934;50.852;8.098;2023-07-31T13:37:09;21.00;99.90
9790;DHT22;4934;50.852;8.098;2023-07-31T13:39:35;21.00;99.90
9790;DHT22;4934;50.852;8.098;2023-07-31T13:42:02;21.00;99.90
9790;DHT22;4934;50.852;8.098;2023-07-31T13:44:28;20.90;99.90
9790;DHT22;4934;50.852;8.098;2023-07-31T13:46:53;20.70;99.90
9790;DHT22;4934;50.852;8.098;2023-07-31T13:49:19;20.80;99.90
9790;DHT22;4934;50.852;8.098;2023-07-31T13:51:44;20.70;99.90
9790;DHT22;4934;50.852;8.098;2023-07-31T13:54:11;20.40;99.90
9790;DHT22;4934;50.852;8.098;2023-07-31T13:56:37;20.40;99.90
9790;DHT22;4934;50.852;8.098;2023-07-31T13:59:03;20.40;99.90
9790;DHT22;4934;50.852;8.098;2023-07-31T14:01:29;20.40;99.90
9790;DHT22;4934;50.852;8.098;2023-07-31T14:03:55;20.40;99.90
9790;DHT22;4934;50.852;8.098;2023-07-31T14:06:21;20.40;99.90
9790;DHT22;4934;50.852;8.098;2023-07-31T14:08:46;20.30;99.90
9790;DHT22;4934;50.852;8.098;2023-07-31T14:11:12;20.30;99.90
9790;DHT22;4934;50.852;8.098;2023-07-31T14:13:37;20.20;99.90
9790;DHT22;4934;50.852;8.098;2023-07-31T14:16:03;20.10;99.90
9790;DHT22;4934;50.852;8.098;2023-07-31T14:18:29;19.90;99.90
9790;DHT22;4934;50.852;8.098;2023-07-31T14:20:54;19.80;99.90
9790;DHT22;4934;50.852;8.098;2023-07-31T14:23:20;19.90;99.90
9790;DHT22;4934;50.852;8.098;2023-07-31T14:25:46;19.90;99.90
9790;DHT22;4934;50.852;8.098;2023-07-31T14:28:12;19.80;99.90
9790;DHT22;4934;50.852;8.098;2023-07-31T14:30:38;19.70;99.90
9790;DHT22;4934;50.852;8.098;2023-07-31T14:33:03;19.80;99.90
9790;DHT22;4934;50.852;8.098;2023-07-31T14:35:29;19.80;99.90
9790;DHT22;4934;50.852;8.098;2023-07-31T14:37:54;20.10;99.90
9790;DHT22;4934;50.852;8.098;2023-07-31T14:40:20;20.30;99.90
9790;DHT22;4934;50.852;8.098;2023-07-31T14:42:46;20.50;99.90
9790;DHT22;4934;50.852;8.098;2023-07-31T14:45:11;20.50;99.90
9790;DHT22;4934;50.852;8.098;2023-07-31T14:47:37;20.70;99.90
9790;DHT22;4934;50.852;8.098;2023-07-31T14:50:03;20.70;99.90
9790;DHT22;4934;50.852;8.098;2023-07-31T14:52:29;20.80;99.90
9790;DHT22;4934;50.852;8.098;2023-07-31T14:54:55;20.90;99.90
9790;DHT22;4934;50.852;8.098;2023-07-31T14:57:20;21.00;99.90
9790;DHT22;4934;50.852;8.098;2023-07-31T14:59:46;21.00;99.90
9790;DHT22;4934;50.852;8.098;2023-07-31T15:02:12;20.90;99.90
9790;DHT22;4934;50.852;8.098;2023-07-31T15:04:38;20.90;99.90
9790;DHT22;4934;50.852;8.098;2023-07-31T15:07:04;20.70;99.90
9790;DHT22;4934;50.852;8.098;2023-07-31T15:09:30;20.50;99.90
9790;DHT22;4934;50.852;8.098;2023-07-31T15:11:56;20.40;99.90
9790;DHT22;4934;50.852;8.098;2023-07-31T15:14:23;20.20;99.90
9790;DHT22;4934;50.852;8.098;2023-07-31T15:16:48;20.10;99.90
9790;DHT22;4934;50.852;8.098;2023-07-31T15:19:14;20.20;99.90
9790;DHT22;4934;50.852;8.098;2023-07-31T15:21:40;20.20;99.90
9790;DHT22;4934;50.852;8.098;2023-07-31T15:24:06;20.20;99.90
9790;DHT22;4934;50.852;8.098;2023-07-31T15:26:32;20.10;99.90
9790;DHT22;4934;50.852;8.098;2023-07-31T15:29:05;20.10;99.90
9790;DHT22;4934;50.852;8.098;2023-07-31T15:31:35;20.10;99.90
9790;DHT22;4934;50.852;8.098;2023-07-31T15:34:00;20.10;99.90
9790;DHT22;4934;50.852;8.098;2023-07-31T15:36:26;20.10;99.90
9790;DHT22;4934;50.852;8.098;2023-07-31T15:38:52;19.80;99.90
9790;DHT22;4934;50.852;8.098;2023-07-31T15:41:18;19.80;99.90
9790;DHT22;4934;50.852;8.098;2023-07-31T15:43:44;19.70;99.90
9790;DHT22;4934;50.852;8.098;2023-07-31T15:46:10;19.80;99.90
9790;DHT22;4934;50.852;8.098;2023-07-31T15:48:35;19.60;99.90
9790;DHT22;4934;50.852;8.098;2023-07-31T15:51:01;19.40;99.90
9790;DHT22;4934;50.852;8.098;2023-07-31T15:53:28;19.30;99.90
9790;DHT22;4934;50.852;8.098;2023-07-31T15:55:54;19.30;99.90
9790;DHT22;4934;50.852;8.098;2023-07-31T15:58:20;19.30;99.90
9790;DHT22;4934;50.852;8.098;2023-07-31T16:00:45;19.20;99.90
9790;DHT22;4934;50.852;8.098;2023-07-31T16:03:11;19.20;99.90
9790;DHT22;4934;50.852;8.098;2023-07-31T16:05:36;19.20;99.90
9790;DHT22;4934;50.852;8.098;2023-07-31T16:08:02;19.10;99.90
9790;DHT22;4934;50.852;8.098;2023-07-31T16:10:28;19.00;99.90
9790;DHT22;4934;50.852;8.098;2023-07-31T16:12:53;18.90;99.90